Time;durP1;ratioP1;P1;durP2;ratioP2;P2;SDS_P1;SDS_P2;PMS_P1;PMS_P2;Temp;Humidity;BMP_temperature;BMP_pressure;BME280_temperature;BME280_humidity;BME280_pressure;Samples;Min_cycle;Max_cycle;Signal;HPM_P1;HPM_P2
2022/09/19 00:01:47;;;;;;;4.38;1.35;;;18.40;99.90;;;;;;5052408;28;20029;-67
2022/09/19 00:04:22;;;;;;;2.60;1.02;;;18.20;99.90;;;;;;5053842;28;20041;-68
2022/09/19 00:06:51;;;;;;;3.30;0.93;;;18.30;99.90;;;;;;5052326;28;20074;-67
2022/09/19 00:09:21;;;;;;;4.88;1.17;;;18.30;99.90;;;;;;5053799;28;20033;-66
2022/09/19 00:11:50;;;;;;;3.40;1.10;;;18.50;99.90;;;;;;5053310;28;20021;-67
2022/09/19 00:14:23;;;;;;;3.00;1.00;;;18.60;99.90;;;;;;5053650;28;20495;-67
2022/09/19 00:17:00;;;;;;;4.57;1.20;;;18.60;99.90;;;;;;5053557;28;20025;-67
2022/09/19 00:19:27;;;;;;;4.85;1.10;;;18.50;99.90;;;;;;5053876;28;20124;-67
2022/09/19 00:21:58;;;;;;;3.60;0.95;;;18.60;99.90;;;;;;5053380;28;20424;-67
2022/09/19 00:27:13;;;;;;;4.75;1.35;;;18.70;99.90;;;;;;5053949;28;20031;-67
2022/09/19 00:29:42;;;;;;;4.20;0.90;;;19.10;99.90;;;;;;5053242;28;20100;-68
2022/09/19 00:32:14;;;;;;;6.88;1.15;;;19.30;99.90;;;;;;5053215;28;20449;-67
2022/09/19 00:34:43;;;;;;;3.97;1.42;;;19.60;99.90;;;;;;5053273;28;20029;-69
2022/09/19 00:37:12;;;;;;;3.30;0.70;;;19.60;99.90;;;;;;5053304;28;20465;-68
2022/09/19 00:39:40;;;;;;;4.50;1.27;;;19.60;99.90;;;;;;5053775;28;20017;-68
2022/09/19 00:42:15;;;;;;;5.10;1.17;;;19.60;99.90;;;;;;5052436;28;20043;-68
2022/09/19 00:44:43;;;;;;;4.15;1.38;;;19.70;99.90;;;;;;5051768;28;20016;-67
2022/09/19 00:47:14;;;;;;;6.78;1.70;;;19.50;99.90;;;;;;5051862;28;20505;-66
2022/09/19 00:49:47;;;;;;;3.70;1.00;;;19.40;99.90;;;;;;5052710;28;20021;-68
2022/09/19 00:52:20;;;;;;;3.17;1.13;;;19.50;99.90;;;;;;5053658;28;20454;-68
2022/09/19 00:54:49;;;;;;;7.45;1.58;;;19.60;99.90;;;;;;5053185;28;20037;-68
2022/09/19 00:57:18;;;;;;;3.67;1.20;;;19.70;99.90;;;;;;5052887;28;20025;-68
2022/09/19 00:59:50;;;;;;;4.32;1.13;;;19.60;99.90;;;;;;5053189;28;20135;-67
2022/09/19 01:02:22;;;;;;;3.47;1.20;;;19.40;99.90;;;;;;5052912;28;20505;-66
2022/09/19 01:04:49;;;;;;;1.98;0.80;;;19.60;99.90;;;;;;5052320;28;20028;-66
2022/09/19 01:07:42;;;;;;;2.83;0.90;;;19.90;99.80;;;;;;5052987;28;20021;-67
2022/09/19 01:10:36;;;;;;;2.95;0.80;;;20.10;99.60;;;;;;5057098;28;20380;-67
2022/09/19 01:13:21;;;;;;;3.70;1.05;;;20.40;98.90;;;;;;5056766;28;20449;-67
2022/09/19 01:15:56;;;;;;;3.35;1.00;;;20.80;98.80;;;;;;5057124;28;20025;-67
2022/09/19 01:18:44;;;;;;;2.80;0.93;;;20.80;98.50;;;;;;5056664;28;20112;-67
2022/09/19 01:22:06;;;;;;;3.38;0.75;;;20.80;99.00;;;;;;5056952;28;20036;-67
2022/09/19 01:24:42;;;;;;;2.60;0.95;;;20.70;98.20;;;;;;5056106;28;20029;-67
2022/09/19 01:27:24;;;;;;;4.70;0.88;;;20.80;98.30;;;;;;5057084;28;20028;-67
2022/09/19 01:30:01;;;;;;;3.70;0.90;;;21.00;98.20;;;;;;5055509;28;20037;-68
2022/09/19 01:32:35;;;;;;;2.92;1.10;;;20.70;97.90;;;;;;5056959;28;20055;-67
2022/09/19 01:35:09;;;;;;;4.97;1.00;;;20.40;98.50;;;;;;5056625;28;20044;-67
2022/09/19 01:37:52;;;;;;;3.50;1.00;;;20.80;97.70;;;;;;5055163;28;20024;-68
2022/09/19 01:40:21;;;;;;;5.32;1.00;;;20.80;98.50;;;;;;5056629;28;20017;-68
2022/09/19 01:42:57;;;;;;;2.13;0.85;;;21.00;98.70;;;;;;5056561;28;20025;-68
2022/09/19 01:45:40;;;;;;;4.60;1.00;;;20.60;98.20;;;;;;5056622;28;20024;-67
2022/09/19 01:48:43;;;;;;;1.88;0.70;;;20.30;98.30;;;;;;5056342;28;20037;-66
2022/09/19 01:51:31;;;;;;;1.73;0.60;;;20.80;98.00;;;;;;5055882;28;20039;-68
2022/09/19 01:53:58;;;;;;;2.10;0.70;;;20.80;96.70;;;;;;5056252;28;20109;-69
2022/09/19 01:56:52;;;;;;;2.10;0.70;;;20.60;97.40;;;;;;5056341;28;20033;-69
2022/09/19 01:59:51;;;;;;;3.30;0.82;;;20.70;97.00;;;;;;5056418;28;20036;-69
2022/09/19 02:02:43;;;;;;;2.40;0.90;;;20.90;97.60;;;;;;5055489;28;20476;-69
2022/09/19 02:05:38;;;;;;;3.95;0.93;;;21.20;97.50;;;;;;5056309;28;20023;-69
2022/09/19 02:08:17;;;;;;;2.80;1.13;;;21.00;97.10;;;;;;5056161;28;20071;-69
2022/09/19 02:10:56;;;;;;;2.63;0.68;;;20.90;97.40;;;;;;5056218;28;20104;-69
2022/09/19 02:13:27;;;;;;;2.90;0.50;;;21.10;96.20;;;;;;5055466;28;20053;-69
2022/09/19 02:16:09;;;;;;;1.95;0.60;;;21.60;97.60;;;;;;5055903;28;20493;-69
2022/09/19 02:19:00;;;;;;;1.83;0.63;;;21.80;95.90;;;;;;5055384;28;20089;-69
2022/09/19 02:21:51;;;;;;;5.05;1.05;;;21.70;96.40;;;;;;5055663;28;20052;-69
2022/09/19 02:24:26;;;;;;;2.58;0.52;;;22.00;96.20;;;;;;5055705;28;20412;-70
2022/09/19 02:26:57;;;;;;;2.30;0.63;;;21.80;95.60;;;;;;5054415;28;20032;-69
2022/09/19 02:29:32;;;;;;;1.63;0.50;;;21.60;94.90;;;;;;5055601;28;20032;-69
2022/09/19 02:32:00;;;;;;;2.00;0.70;;;21.70;95.60;;;;;;5055571;28;20495;-69
2022/09/19 02:34:28;;;;;;;2.25;0.55;;;21.70;94.60;;;;;;5055640;28;20021;-69
2022/09/19 02:37:01;;;;;;;3.05;0.50;;;21.80;95.20;;;;;;5055344;28;20053;-69
2022/09/19 02:39:40;;;;;;;1.55;0.50;;;21.80;95.50;;;;;;5055532;28;20473;-68
2022/09/19 02:42:17;;;;;;;2.70;0.70;;;21.80;95.20;;;;;;5055689;28;20029;-68
2022/09/19 02:45:05;;;;;;;2.38;0.52;;;22.10;95.80;;;;;;5055454;28;20496;-69
2022/09/19 02:47:51;;;;;;;3.08;0.40;;;22.00;94.80;;;;;;5055384;28;20189;-68
2022/09/19 02:50:36;;;;;;;1.92;0.65;;;21.70;95.20;;;;;;5055254;28;20048;-69
2022/09/19 02:53:09;;;;;;;3.05;0.82;;;21.90;95.40;;;;;;5055273;28;20032;-70
2022/09/19 02:55:45;;;;;;;3.58;0.70;;;22.00;95.60;;;;;;5055180;28;20017;-69
2022/09/19 02:58:15;;;;;;;3.22;0.80;;;22.00;94.80;;;;;;5055006;28;20546;-69
2022/09/19 03:00:52;;;;;;;1.25;0.70;;;22.10;94.80;;;;;;5055173;28;20028;-69
2022/09/19 03:06:54;;;;;;;2.65;0.50;;;22.00;94.50;;;;;;5055152;28;20108;-68
2022/09/19 03:09:25;;;;;;;2.85;0.70;;;22.40;95.10;;;;;;5055084;28;20021;-68
2022/09/19 03:12:05;;;;;;;2.03;0.50;;;22.70;94.90;;;;;;5054769;28;20020;-68
2022/09/19 03:14:35;;;;;;;2.20;0.70;;;22.90;94.90;;;;;;5054834;28;20126;-69
2022/09/19 03:17:03;;;;;;;2.28;0.60;;;23.20;95.10;;;;;;5054711;28;20021;-68
2022/09/19 03:19:32;;;;;;;2.25;0.82;;;23.20;93.80;;;;;;5054635;28;20036;-68
2022/09/19 03:22:01;;;;;;;2.78;0.75;;;22.50;94.20;;;;;;5054758;28;20027;-68
2022/09/19 03:24:28;;;;;;;1.45;0.50;;;22.20;94.60;;;;;;5054589;28;20025;-68
2022/09/19 03:26:55;;;;;;;2.20;0.50;;;21.70;94.50;;;;;;5054522;28;20512;-68
2022/09/19 03:29:23;;;;;;;3.05;0.73;;;21.50;94.30;;;;;;5054572;28;20104;-68
2022/09/19 03:31:52;;;;;;;1.45;0.63;;;21.70;94.80;;;;;;5053816;28;20108;-68
2022/09/19 03:34:19;;;;;;;3.13;0.60;;;21.20;94.80;;;;;;5054486;28;20021;-68
2022/09/19 03:36:47;;;;;;;2.15;0.63;;;21.30;96.00;;;;;;5054328;28;20072;-69
2022/09/19 03:39:15;;;;;;;3.70;0.60;;;21.70;95.90;;;;;;5054574;28;20428;-68
2022/09/19 03:41:43;;;;;;;2.30;0.77;;;22.00;95.10;;;;;;5054287;28;20021;-69
2022/09/19 03:44:11;;;;;;;2.15;0.50;;;22.80;94.80;;;;;;5053188;28;20079;-69
2022/09/19 03:46:38;;;;;;;1.67;0.32;;;22.80;93.40;;;;;;5054198;28;20028;-70
2022/09/19 03:49:05;;;;;;;2.53;0.65;;;22.80;93.50;;;;;;5054179;28;20052;-69
2022/09/19 03:51:33;;;;;;;2.35;0.68;;;22.60;93.40;;;;;;5053997;28;20048;-69
2022/09/19 03:54:01;;;;;;;1.13;0.32;;;22.00;93.60;;;;;;5054026;28;20074;-69
2022/09/19 03:56:28;;;;;;;2.47;0.47;;;21.80;95.10;;;;;;5053991;28;20040;-69
2022/09/19 03:58:56;;;;;;;1.38;0.70;;;21.60;94.30;;;;;;5053602;28;20017;-69
2022/09/19 04:01:23;;;;;;;2.85;0.50;;;21.30;94.90;;;;;;5052632;28;20021;-69
2022/09/19 04:03:51;;;;;;;2.95;0.50;;;21.40;94.50;;;;;;5053621;28;20029;-69
2022/09/19 04:06:18;;;;;;;1.08;0.60;;;21.70;94.10;;;;;;5053635;28;20021;-68
2022/09/19 04:08:46;;;;;;;2.13;0.70;;;22.20;94.10;;;;;;5054060;28;20017;-69
2022/09/19 04:11:13;;;;;;;2.60;0.60;;;22.10;94.50;;;;;;5052757;28;20517;-68
2022/09/19 04:13:40;;;;;;;1.40;0.50;;;22.00;94.30;;;;;;5053110;28;20047;-68
2022/09/19 04:16:08;;;;;;;1.48;0.40;;;22.00;93.50;;;;;;5051776;28;20075;-68
2022/09/19 04:18:41;;;;;;;2.22;0.73;;;22.10;93.40;;;;;;5051635;28;20147;-69
2022/09/19 04:21:08;;;;;;;5.63;0.60;;;22.40;93.50;;;;;;5051816;28;20017;-69
2022/09/19 04:23:36;;;;;;;1.40;0.50;;;22.70;93.10;;;;;;5051689;28;20217;-68
2022/09/19 04:26:05;;;;;;;2.22;0.57;;;22.80;92.90;;;;;;5051691;28;20021;-69
2022/09/19 04:28:32;;;;;;;3.50;0.43;;;23.10;92.90;;;;;;5052089;28;20021;-68
2022/09/19 04:31:00;;;;;;;2.83;0.40;;;22.90;92.50;;;;;;5053427;28;20392;-69
2022/09/19 04:33:28;;;;;;;2.35;0.50;;;23.00;93.20;;;;;;5053029;28;20052;-68
2022/09/19 04:36:00;;;;;;;1.00;0.40;;;23.20;92.70;;;;;;5053242;28;20029;-69
2022/09/19 04:38:30;;;;;;;1.85;0.43;;;23.10;92.50;;;;;;5053923;28;20062;-68
2022/09/19 04:40:57;;;;;;;;;;;23.30;92.80;;;;;;5054053;28;20029;-68
2022/09/19 04:43:26;;;;;;;2.03;0.57;;;23.60;92.70;;;;;;5053628;28;19908;-69
2022/09/19 04:45:59;;;;;;;2.03;0.50;;;23.60;91.90;;;;;;5053669;28;20103;-67
2022/09/19 04:48:26;;;;;;;2.03;0.75;;;23.70;92.40;;;;;;5053562;28;20029;-67
2022/09/19 04:50:54;;;;;;;2.55;0.98;;;23.80;91.70;;;;;;5053153;28;20158;-69
2022/09/19 04:53:27;;;;;;;3.17;0.90;;;23.60;91.90;;;;;;5051583;28;20386;-68
2022/09/19 04:55:55;;;;;;;1.90;0.70;;;23.70;92.30;;;;;;5053019;28;20474;-69
2022/09/19 04:58:23;;;;;;;1.52;0.45;;;24.00;92.10;;;;;;5052785;28;20029;-68
2022/09/19 05:00:53;;;;;;;1.25;0.50;;;23.90;91.60;;;;;;5053054;28;20450;-69
2022/09/19 05:03:25;;;;;;;2.20;0.50;;;23.80;90.90;;;;;;5051131;28;20365;-68
2022/09/19 05:05:53;;;;;;;2.17;0.88;;;23.90;91.30;;;;;;5049786;28;20036;-68
2022/09/19 05:08:25;;;;;;;1.20;0.50;;;23.80;91.30;;;;;;5052386;28;20080;-68
2022/09/19 05:10:58;;;;;;;2.97;0.50;;;23.70;91.90;;;;;;5051724;28;20381;-68
2022/09/19 05:13:28;;;;;;;1.20;0.50;;;23.70;91.10;;;;;;5051553;28;20045;-68
2022/09/19 05:15:57;;;;;;;1.52;0.50;;;23.60;91.20;;;;;;5051993;28;20132;-67
2022/09/19 05:18:24;;;;;;;3.38;0.70;;;23.50;91.90;;;;;;5052479;28;20056;-66
2022/09/19 05:20:52;;;;;;;2.60;0.90;;;23.40;91.80;;;;;;5052825;28;20028;-67
2022/09/19 05:23:23;;;;;;;2.67;0.43;;;23.30;92.40;;;;;;5052701;28;20048;-67
2022/09/19 05:25:53;;;;;;;5.88;0.80;;;23.30;91.80;;;;;;5052505;28;20389;-68
2022/09/19 05:28:21;;;;;;;;;;;23.30;92.60;;;;;;5053325;28;20497;-68
2022/09/19 05:30:54;;;;;;;1.58;0.30;;;23.50;91.70;;;;;;5052834;28;19909;-67
2022/09/19 05:33:26;;;;;;;2.88;0.50;;;23.80;92.70;;;;;;5052658;28;20108;-69
2022/09/19 05:36:00;;;;;;;1.35;0.50;;;23.90;91.70;;;;;;5052781;28;20032;-69
2022/09/19 05:38:34;;;;;;;2.40;0.60;;;23.70;93.90;;;;;;5052519;28;20660;-67
2022/09/19 05:41:03;;;;;;;1.67;0.45;;;22.80;95.80;;;;;;5052636;28;20024;-67
2022/09/19 05:43:31;;;;;;;1.90;0.70;;;22.30;96.90;;;;;;5052480;28;20362;-67
2022/09/19 05:45:58;;;;;;;2.47;0.60;;;21.90;97.70;;;;;;5052626;28;20027;-67
2022/09/19 05:48:27;;;;;;;1.92;0.50;;;21.60;97.70;;;;;;5052504;28;20388;-67
2022/09/19 05:50:55;;;;;;;4.38;0.75;;;21.30;97.50;;;;;;5052705;28;20373;-67
2022/09/19 05:56:08;;;;;;;3.05;0.55;;;20.90;97.70;;;;;;5056941;28;20418;-68
2022/09/19 05:58:35;;;;;;;2.17;0.50;;;21.00;98.30;;;;;;5056063;28;20033;-68
2022/09/19 06:01:08;;;;;;;2.15;0.50;;;21.10;98.50;;;;;;5056119;28;20021;-67
2022/09/19 06:03:35;;;;;;;4.05;0.80;;;21.20;98.00;;;;;;5056515;28;20430;-67
2022/09/19 06:06:11;;;;;;;5.47;0.82;;;21.10;98.20;;;;;;5055972;28;20100;-68
2022/09/19 06:08:40;;;;;;;2.95;0.60;;;21.00;97.80;;;;;;5056696;28;20108;-68
2022/09/19 06:11:09;;;;;;;3.28;0.70;;;20.80;97.90;;;;;;5054503;28;20063;-67
2022/09/19 06:16:22;;;;;;;2.78;0.73;;;20.70;98.10;;;;;;5055978;28;20031;-67
2022/09/19 06:18:50;;;;;;;3.38;0.70;;;20.30;97.80;;;;;;5055846;28;20029;-67
2022/09/19 06:21:17;;;;;;;2.33;0.70;;;20.30;97.30;;;;;;5055581;28;20720;-67
2022/09/19 06:23:44;;;;;;;2.42;0.47;;;20.20;98.00;;;;;;5055828;28;20017;-68
2022/09/19 06:26:12;;;;;;;4.35;0.68;;;20.10;97.90;;;;;;5055482;28;20044;-68
2022/09/19 06:28:39;;;;;;;3.22;0.30;;;20.20;98.30;;;;;;5055654;28;20033;-68
2022/09/19 06:31:08;;;;;;;3.60;0.50;;;20.10;98.30;;;;;;5055575;28;20025;-68
2022/09/19 06:33:35;;;;;;;2.30;0.50;;;20.20;98.80;;;;;;5055487;28;20025;-69
2022/09/19 06:36:03;;;;;;;2.40;0.40;;;20.30;99.00;;;;;;5054317;28;20029;-68
2022/09/19 06:38:35;;;;;;;1.05;0.40;;;20.20;98.80;;;;;;5055403;28;20108;-68
2022/09/19 06:41:06;;;;;;;2.30;0.70;;;19.90;98.40;;;;;;5055273;28;20017;-68
2022/09/19 06:43:33;;;;;;;3.17;1.40;;;19.70;98.50;;;;;;5055580;28;20024;-68
2022/09/19 06:46:01;;;;;;;3.25;1.40;;;19.70;99.00;;;;;;5055512;28;20048;-68
2022/09/19 06:48:28;;;;;;;4.30;0.88;;;19.50;99.80;;;;;;5055303;28;20028;-68
2022/09/19 06:50:55;;;;;;;2.45;1.00;;;19.30;99.90;;;;;;5055180;28;20031;-68
2022/09/19 06:53:23;;;;;;;2.67;0.90;;;19.30;99.60;;;;;;5055276;28;20071;-68
2022/09/19 06:55:50;;;;;;;2.50;0.90;;;19.30;99.60;;;;;;5055096;28;20021;-68
2022/09/19 06:58:17;;;;;;;2.22;0.57;;;19.30;99.50;;;;;;5055095;28;20077;-67
2022/09/19 07:00:45;;;;;;;1.98;0.50;;;19.40;99.70;;;;;;5054827;28;20470;-69
2022/09/19 07:03:15;;;;;;;3.25;1.05;;;19.20;99.70;;;;;;5055025;28;20044;-69
2022/09/19 07:05:47;;;;;;;2.35;0.88;;;19.20;99.90;;;;;;5052313;28;20021;-67
2022/09/19 07:08:15;;;;;;;3.45;0.80;;;19.30;99.80;;;;;;5054992;28;20037;-68
2022/09/19 07:10:44;;;;;;;2.92;0.50;;;19.70;99.90;;;;;;5054836;28;20549;-68
2022/09/19 07:13:19;;;;;;;1.98;1.13;;;19.80;99.60;;;;;;5054702;28;20044;-67
2022/09/19 07:15:47;;;;;;;4.00;1.30;;;19.40;99.90;;;;;;5054701;28;20032;-68
2022/09/19 07:18:14;;;;;;;1.63;0.60;;;19.10;99.90;;;;;;5054415;28;20029;-67
2022/09/19 07:20:42;;;;;;;5.03;1.02;;;18.70;99.90;;;;;;5054754;28;20020;-67
2022/09/19 07:23:18;;;;;;;2.10;0.60;;;18.40;99.90;;;;;;5054723;28;20039;-68
2022/09/19 07:25:48;;;;;;;3.13;0.80;;;18.20;99.90;;;;;;5054743;28;20052;-67
2022/09/19 07:28:18;;;;;;;1.92;0.45;;;18.10;99.90;;;;;;5053418;28;20517;-67
2022/09/19 07:30:47;;;;;;;1.60;0.50;;;17.90;99.90;;;;;;5052826;28;20504;-67
2022/09/19 07:33:17;;;;;;;1.67;0.60;;;17.80;99.90;;;;;;5053579;28;20269;-67
2022/09/19 07:35:44;;;;;;;1.40;0.57;;;17.70;99.90;;;;;;5053973;28;20033;-68
2022/09/19 07:38:16;;;;;;;3.38;1.20;;;17.50;99.90;;;;;;5054072;28;20079;-68
2022/09/19 07:40:44;;;;;;;2.00;0.77;;;17.40;99.90;;;;;;5054348;28;20452;-69
2022/09/19 07:43:13;;;;;;;2.78;0.88;;;17.30;99.90;;;;;;5053972;28;20024;-68
2022/09/19 08:06:19;;;;;;;3.28;0.77;;;16.40;99.90;;;;;;5013215;28;20077;-67
2022/09/19 08:08:46;;;;;;;5.00;1.63;;;16.30;99.90;;;;;;5013803;28;20026;-67
2022/09/19 08:11:13;;;;;;;2.97;1.17;;;16.30;99.90;;;;;;5012543;28;20034;-67
2022/09/19 08:13:42;;;;;;;4.13;1.50;;;16.20;99.90;;;;;;5013684;28;20022;-67
2022/09/19 08:16:10;;;;;;;3.80;1.35;;;16.20;99.90;;;;;;5013644;28;20109;-67
2022/09/19 08:18:39;;;;;;;4.72;1.20;;;16.10;99.90;;;;;;5028077;28;20037;-67
2022/09/19 08:21:07;;;;;;;3.58;1.40;;;16.00;99.90;;;;;;5013504;28;20100;-67
2022/09/19 08:23:34;;;;;;;5.93;2.95;;;15.90;99.90;;;;;;5013043;28;20022;-68
2022/09/19 08:26:02;;;;;;;6.32;3.80;;;15.90;99.90;;;;;;5012405;28;20050;-66
2022/09/19 08:28:30;;;;;;;3.65;2.30;;;15.80;99.90;;;;;;5012906;28;20390;-66
2022/09/19 08:31:01;;;;;;;3.45;1.67;;;15.70;99.90;;;;;;5012376;28;20504;-66
2022/09/19 08:33:29;;;;;;;4.97;2.97;;;15.70;99.90;;;;;;5013762;28;20022;-67
2022/09/19 08:35:59;;;;;;;6.68;2.47;;;15.60;99.90;;;;;;5013548;28;20061;-66
2022/09/19 08:38:27;;;;;;;12.18;3.13;;;15.60;99.90;;;;;;5013392;28;20021;-67
2022/09/19 08:40:57;;;;;;;5.57;3.75;;;15.60;99.90;;;;;;5013469;28;20022;-68
2022/09/19 08:43:45;;;;;;;6.50;3.08;;;15.50;99.90;;;;;;5012484;28;20022;-67
2022/09/19 08:46:27;;;;;;;5.97;2.60;;;15.40;99.90;;;;;;5013553;28;20014;-67
2022/09/19 08:49:00;;;;;;;2.88;1.40;;;15.40;99.90;;;;;;5013350;28;20416;-67
2022/09/19 08:52:10;;;;;;;5.57;1.25;;;15.30;99.90;;;;;;5013706;28;20051;-67
2022/09/19 08:54:44;;;;;;;3.45;1.50;;;15.30;99.90;;;;;;4972298;28;20386;-68
2022/09/19 08:57:32;;;;;;;4.45;2.15;;;15.30;99.90;;;;;;4972128;28;20085;-67
2022/09/19 09:00:17;;;;;;;4.18;1.75;;;15.20;99.90;;;;;;5000193;28;20026;-68
2022/09/19 09:02:45;;;;;;;4.13;1.70;;;15.20;99.90;;;;;;5013115;28;20050;-67
2022/09/19 09:05:14;;;;;;;5.70;1.70;;;15.10;99.90;;;;;;5012938;28;20533;-67
2022/09/19 09:08:22;;;;;;;5.40;2.53;;;15.10;99.90;;;;;;5011715;28;20048;-67
2022/09/19 09:11:12;;;;;;;6.63;2.40;;;15.00;99.90;;;;;;5011752;28;20042;-67
2022/09/19 09:14:19;;;;;;;4.28;1.63;;;14.90;99.90;;;;;;5013147;28;20412;-68
2022/09/19 09:16:46;;;;;;;4.22;1.70;;;14.90;99.90;;;;;;5006125;28;20045;-67
2022/09/19 09:19:41;;;;;;;5.72;2.28;;;14.80;99.90;;;;;;5013017;28;20120;-67
2022/09/19 09:22:40;;;;;;;4.60;1.75;;;14.70;99.90;;;;;;5013341;28;20096;-66
2022/09/19 09:25:29;;;;;;;4.47;1.55;;;14.70;99.90;;;;;;5011327;28;20041;-66
2022/09/19 09:28:06;;;;;;;8.27;2.28;;;14.70;99.90;;;;;;5010188;28;20033;-66
2022/09/19 09:30:40;;;;;;;4.55;2.33;;;14.60;99.90;;;;;;5014796;28;20473;-66
2022/09/19 09:33:24;;;;;;;4.28;2.47;;;14.60;99.90;;;;;;5013903;28;20022;-68
2022/09/19 09:36:23;;;;;;;7.57;2.13;;;14.50;99.90;;;;;;5015709;28;20033;-68
2022/09/19 09:38:58;;;;;;;5.20;2.30;;;14.50;99.90;;;;;;5015844;28;20474;-67
2022/09/19 09:41:47;;;;;;;3.53;2.17;;;14.50;99.90;;;;;;5015573;28;20022;-67
2022/09/19 09:44:27;;;;;;;5.35;2.90;;;14.40;99.90;;;;;;5016707;28;20033;-67
2022/09/19 09:47:10;;;;;;;6.45;2.72;;;14.30;99.90;;;;;;5016707;28;20476;-67
2022/09/19 09:49:37;;;;;;;4.20;1.92;;;14.30;99.90;;;;;;5016544;28;20022;-67
2022/09/19 09:52:33;;;;;;;3.75;2.15;;;14.30;99.90;;;;;;5014703;28;20053;-67
2022/09/19 09:58:10;;;;;;;4.50;2.00;;;14.20;99.90;;;;;;5014666;28;20504;-68
2022/09/19 10:03:49;;;;;;;6.80;2.10;;;14.20;99.90;;;;;;5014644;28;20036;-68
2022/09/19 10:07:09;;;;;;;3.88;2.17;;;14.10;99.90;;;;;;5014136;28;20390;-68
2022/09/19 10:09:42;;;;;;;4.53;1.73;;;14.10;99.90;;;;;;4976941;28;20018;-67
2022/09/19 10:12:58;;;;;;;4.50;2.20;;;14.00;99.90;;;;;;4994618;28;20042;-67
2022/09/19 10:15:27;;;;;;;6.57;1.95;;;14.00;99.90;;;;;;4954561;29;20039;-68
2022/09/19 10:18:13;;;;;;;4.80;1.75;;;13.90;99.90;;;;;;4955593;29;20503;-68
2022/09/19 10:20:51;;;;;;;3.25;1.80;;;13.90;99.90;;;;;;4998493;28;20117;-67
2022/09/19 10:23:32;;;;;;;5.05;2.10;;;13.80;99.90;;;;;;5015988;28;20022;-68
2022/09/19 10:26:06;;;;;;;6.00;2.20;;;13.80;99.90;;;;;;5015973;28;20022;-68
2022/09/19 10:28:45;;;;;;;5.78;2.00;;;13.80;99.90;;;;;;5015936;28;20029;-68
2022/09/19 10:31:34;;;;;;;6.93;2.15;;;13.70;99.90;;;;;;5014890;28;20436;-68
2022/09/19 10:34:06;;;;;;;4.75;2.10;;;13.70;99.90;;;;;;5015667;28;20033;-68
2022/09/19 10:36:47;;;;;;;4.93;1.80;;;13.70;99.90;;;;;;5016030;28;20363;-68
2022/09/19 10:39:17;;;;;;;3.97;2.15;;;13.70;99.90;;;;;;5015654;28;20030;-68
2022/09/19 10:41:44;;;;;;;;;;;13.70;99.90;;;;;;5015883;28;20109;-68
2022/09/19 10:44:23;;;;;;;7.28;2.42;;;13.70;99.90;;;;;;5015549;28;19973;-68
2022/09/19 10:47:00;;;;;;;3.53;1.83;;;13.80;99.90;;;;;;5015589;28;20029;-68
2022/09/19 10:49:31;;;;;;;3.55;2.10;;;13.80;99.90;;;;;;5015496;28;20029;-68
2022/09/19 10:51:59;;;;;;;6.30;2.33;;;13.80;99.90;;;;;;5014245;28;20026;-68
2022/09/19 10:54:36;;;;;;;6.20;2.10;;;13.70;99.90;;;;;;5015361;28;20101;-69
2022/09/19 10:57:05;;;;;;;5.43;1.70;;;13.70;99.90;;;;;;5015283;28;20029;-69
2022/09/19 10:59:40;;;;;;;4.85;2.05;;;13.50;99.90;;;;;;5015285;28;20084;-68
2022/09/19 11:02:17;;;;;;;5.97;1.90;;;13.50;99.90;;;;;;5015120;28;20022;-69
2022/09/19 11:05:04;;;;;;;4.80;1.80;;;13.40;99.90;;;;;;5015663;28;20097;-67
2022/09/19 11:07:48;;;;;;;4.93;2.25;;;13.40;99.90;;;;;;5015173;28;20038;-67
2022/09/19 11:10:40;;;;;;;5.60;1.90;;;13.30;99.90;;;;;;5013798;28;20029;-68
2022/09/19 11:13:13;;;;;;;4.13;1.85;;;13.20;99.90;;;;;;5013856;28;20037;-68
2022/09/19 11:16:16;;;;;;;4.32;1.90;;;13.20;99.90;;;;;;5014803;28;20486;-68
2022/09/19 11:19:12;;;;;;;6.22;2.17;;;13.20;99.90;;;;;;5013416;28;20120;-67
2022/09/19 11:22:26;;;;;;;4.30;2.10;;;13.20;99.90;;;;;;5014822;28;20026;-68
2022/09/19 11:25:19;;;;;;;5.32;1.60;;;13.10;99.90;;;;;;5013657;28;20044;-68
2022/09/19 11:27:52;;;;;;;4.45;1.73;;;13.10;99.90;;;;;;5015017;28;20478;-67
2022/09/19 11:30:26;;;;;;;4.53;1.70;;;13.10;99.90;;;;;;5014023;28;20504;-68
2022/09/19 11:33:06;;;;;;;6.07;1.80;;;13.00;99.90;;;;;;5014589;28;20363;-67
2022/09/19 11:35:42;;;;;;;;;;;13.00;99.90;;;;;;5015503;28;20026;-67
2022/09/19 11:38:37;;;;;;;5.90;2.00;;;12.90;99.90;;;;;;5014414;28;19909;-68
2022/09/19 11:41:08;;;;;;;3.92;1.85;;;12.90;99.90;;;;;;5014487;28;20030;-67
2022/09/19 11:44:27;;;;;;;4.15;1.58;;;12.90;99.90;;;;;;5014580;28;20017;-68
2022/09/19 11:47:25;;;;;;;3.75;1.80;;;12.90;99.90;;;;;;4988253;28;20037;-68
2022/09/19 11:50:20;;;;;;;5.72;2.10;;;12.80;99.90;;;;;;5014333;28;20025;-68
2022/09/19 11:53:07;;;;;;;5.40;2.20;;;12.80;99.90;;;;;;5012683;28;20539;-68
2022/09/19 11:55:38;;;;;;;4.68;1.90;;;12.70;99.90;;;;;;5013072;28;20045;-68
2022/09/19 11:58:06;;;;;;;6.00;2.13;;;12.70;99.90;;;;;;5012319;28;20022;-69
2022/09/19 12:00:50;;;;;;;7.07;2.60;;;12.60;99.90;;;;;;5013457;28;20014;-67
2022/09/19 12:03:26;;;;;;;4.88;2.10;;;12.60;99.90;;;;;;5013966;28;20367;-68
2022/09/19 12:06:16;;;;;;;5.03;2.30;;;12.70;99.90;;;;;;5013947;28;20034;-68
2022/09/19 12:08:57;;;;;;;3.50;2.03;;;12.70;99.90;;;;;;5012655;28;20029;-68
2022/09/19 12:11:45;;;;;;;5.57;1.90;;;12.70;99.90;;;;;;5013297;28;20022;-68
2022/09/19 12:14:27;;;;;;;5.47;2.10;;;12.70;99.90;;;;;;5014240;28;20030;-68
2022/09/19 12:17:04;;;;;;;3.67;1.60;;;12.80;99.90;;;;;;5013886;28;20512;-68
2022/09/19 12:19:40;;;;;;;5.32;2.42;;;12.90;99.90;;;;;;5013855;28;20025;-68
2022/09/19 12:22:21;;;;;;;5.65;2.50;;;12.90;99.90;;;;;;5013941;28;20464;-68
2022/09/19 12:25:01;;;;;;;6.70;2.22;;;13.00;99.90;;;;;;5012234;28;20533;-68
2022/09/19 12:27:51;;;;;;;4.70;1.90;;;13.00;99.90;;;;;;5011820;28;20026;-68
2022/09/19 12:30:22;;;;;;;5.45;2.97;;;13.10;99.90;;;;;;5011753;28;20022;-67
2022/09/19 12:33:19;;;;;;;4.18;2.20;;;13.10;99.90;;;;;;5011746;28;20105;-68
2022/09/19 12:35:47;;;;;;;5.43;2.10;;;13.10;99.90;;;;;;5011688;28;20025;-68
2022/09/19 12:38:17;;;;;;;4.50;1.67;;;13.10;99.90;;;;;;5011476;28;20033;-68
2022/09/19 12:40:53;;;;;;;4.35;1.80;;;13.10;99.90;;;;;;5013672;28;20032;-68
2022/09/19 12:43:30;;;;;;;6.60;2.10;;;13.10;99.90;;;;;;5013517;28;20022;-68
2022/09/19 12:46:16;;;;;;;5.10;2.38;;;13.10;99.90;;;;;;5013566;28;20022;-68
2022/09/19 12:49:05;;;;;;;5.25;2.38;;;13.00;99.90;;;;;;5013492;28;20018;-68
2022/09/19 12:52:10;;;;;;;4.63;2.15;;;13.10;99.90;;;;;;5013561;28;20033;-68
2022/09/19 12:55:03;;;;;;;5.70;2.13;;;13.00;99.90;;;;;;5013473;28;20565;-68
2022/09/19 12:57:52;;;;;;;4.13;2.10;;;13.10;99.90;;;;;;5013564;28;20595;-68
2022/09/19 13:00:24;;;;;;;5.70;2.30;;;13.00;99.90;;;;;;5013510;28;20049;-68
2022/09/19 13:03:05;;;;;;;3.03;1.90;;;13.00;99.90;;;;;;5013616;28;20351;-68
2022/09/19 13:05:40;;;;;;;5.25;1.92;;;12.90;99.90;;;;;;5013422;28;20068;-68
2022/09/19 13:08:17;;;;;;;4.88;2.10;;;12.80;99.90;;;;;;5013205;28;20034;-68
2022/09/19 13:11:20;;;;;;;5.95;1.92;;;12.70;99.90;;;;;;5013354;28;20026;-68
2022/09/19 13:14:10;;;;;;;5.53;1.83;;;12.70;99.90;;;;;;5009037;28;20034;-68
2022/09/19 13:25:21;;;;;;;4.40;1.50;;;12.50;99.90;;;;;;5013335;28;20032;-68
2022/09/19 13:28:19;;;;;;;2.95;1.15;;;12.50;99.90;;;;;;5013161;28;20402;-68
2022/09/19 13:31:12;;;;;;;3.25;1.25;;;12.40;99.90;;;;;;5013454;28;20030;-68
2022/09/19 13:33:52;;;;;;;2.65;1.17;;;12.40;99.90;;;;;;5013256;28;20040;-68
2022/09/19 13:36:25;;;;;;;1.77;0.98;;;12.40;99.90;;;;;;5012983;28;20034;-68
2022/09/19 13:39:00;;;;;;;3.15;1.30;;;12.40;99.90;;;;;;5012930;28;20056;-68
2022/09/19 13:41:56;;;;;;;2.85;1.30;;;12.30;99.90;;;;;;5012931;28;20022;-68
2022/09/19 13:44:49;;;;;;;1.92;0.95;;;12.40;99.90;;;;;;5012834;28;20022;-67
2022/09/19 13:47:24;;;;;;;2.53;1.05;;;12.30;99.90;;;;;;5012873;28;20386;-67
2022/09/19 13:50:38;;;;;;;3.83;1.20;;;12.30;99.90;;;;;;5012893;28;20041;-68
2022/09/19 13:53:12;;;;;;;2.47;1.05;;;12.30;99.90;;;;;;5010764;28;20124;-67
2022/09/19 13:55:41;;;;;;;4.70;1.08;;;12.30;99.90;;;;;;5012747;28;20033;-68
2022/09/19 13:58:39;;;;;;;3.03;1.00;;;12.30;99.90;;;;;;5012621;28;20037;-69
2022/09/19 14:01:13;;;;;;;2.08;1.20;;;12.20;99.90;;;;;;5012670;28;20029;-67
2022/09/19 14:03:46;;;;;;;2.47;0.90;;;12.20;99.90;;;;;;5012559;28;20106;-67
2022/09/19 14:06:34;;;;;;;2.72;1.00;;;12.20;99.90;;;;;;5012517;28;20046;-68
2022/09/19 14:09:30;;;;;;;4.55;1.02;;;12.20;99.90;;;;;;5012783;28;20026;-68
2022/09/19 14:11:59;;;;;;;1.77;0.95;;;12.30;99.90;;;;;;5012706;28;20022;-67
2022/09/19 14:14:40;;;;;;;3.70;1.27;;;12.30;99.90;;;;;;5012860;28;20022;-67
2022/09/19 14:17:20;;;;;;;1.95;0.80;;;12.30;99.90;;;;;;5016385;28;20478;-68
2022/09/19 14:19:54;;;;;;;2.38;0.90;;;12.30;99.90;;;;;;5016121;28;20025;-68
2022/09/19 14:22:37;;;;;;;1.80;0.73;;;12.40;99.90;;;;;;5016107;28;20478;-68